Time;durP1;ratioP1;P1;durP2;ratioP2;P2;SDS_P1;SDS_P2;PMS_P1;PMS_P2;Temp;Humidity;BMP_temperature;BMP_pressure;BME280_temperature;BME280_humidity;BME280_pressure;Samples;Min_cycle;Max_cycle;Signal;HPM_P1;HPM_P2
2022/01/02 00:00:07;;;;;;;;;;;;;;;;;;5007337;28;19934;-69
2022/01/02 00:02:34;;;;;;;;;;;;;;;;;;5005228;28;19941;-70
2022/01/02 00:05:01;;;;;;;;;;;;;;;;;;5007843;28;19940;-70
2022/01/02 00:07:28;;;;;;;;;;;;;;;;;;5009005;28;20064;-70
2022/01/02 00:09:54;;;;;;;;;;;;;;;;;;5008435;28;19926;-69
2022/01/02 00:12:23;;;;;;;;;;;;;;;;;;5006911;28;19925;-70
2022/01/02 00:14:50;;;;;;;;;;;;;;;;;;5009540;28;20002;-69
2022/01/02 00:17:22;;;;;;;;;;;;;;;;;;5007762;28;19932;-70
2022/01/02 00:19:53;;;;;;;;;;;;;;;;;;5009579;28;20442;-70
2022/01/02 00:22:20;;;;;;;;;;;;;;;;;;5007418;28;19925;-70
2022/01/02 00:24:47;;;;;;;;;;;;;;;;;;5008458;28;19929;-69
2022/01/02 00:27:14;;;;;;;;;;;;;;;;;;5007348;28;20019;-71
2022/01/02 00:29:41;;;;;;;;;;;;;;;;;;5001410;28;19932;-70
2022/01/02 00:32:08;;;;;;;;;;;;;;;;;;5003890;28;19984;-71
2022/01/02 00:34:34;;;;;;;;;;;;;;;;;;5008772;28;19933;-70
2022/01/02 00:37:01;;;;;;;;;;;;;;;;;;5005848;28;19933;-69
2022/01/02 00:39:28;;;;;;;;;;;;;;;;;;5009253;28;19951;-69
2022/01/02 00:41:55;;;;;;;;;;;;;;;;;;5005067;28;20019;-69
2022/01/02 00:44:22;;;;;;;;;;;;;;;;;;5009351;28;20302;-70
2022/01/02 00:46:49;;;;;;;;;;;;;;;;;;5005233;28;20383;-70
2022/01/02 00:49:16;;;;;;;;;;;;;;;;;;5010380;28;19926;-69
2022/01/02 00:51:47;;;;;;;;;;;;;;;;;;5006540;28;20380;-69
2022/01/02 00:54:14;;;;;;;;;;;;;;;;;;5008915;28;19933;-69
2022/01/02 00:56:41;;;;;;;;;;;;;;;;;;5004448;28;20278;-71
2022/01/02 00:59:07;;;;;;;;;;;;;;;;;;5008227;28;20391;-70
2022/01/02 01:01:34;;;;;;;;;;;;;;;;;;5004028;28;19926;-70
2022/01/02 01:04:01;;;;;;;;;;;;;;;;;;5006878;28;19933;-69
2022/01/02 01:06:28;;;;;;;;;;;;;;;;;;5003463;28;19934;-68
2022/01/02 01:08:57;;;;;;;;;;;;;;;;;;5005612;28;20289;-70
2022/01/02 01:11:24;;;;;;;;;;;;;;;;;;5007520;28;19936;-69
2022/01/02 01:13:51;;;;;;;;;;;;;;;;;;5006410;28;19936;-70
2022/01/02 01:16:18;;;;;;;;;;;;;;;;;;5003181;28;19933;-70
2022/01/02 01:18:45;;;;;;;;;;;;;;;;;;5007818;28;19980;-69
2022/01/02 01:21:12;;;;;;;;;;;;;;;;;;5005551;28;19925;-70
2022/01/02 01:23:39;;;;;;;;;;;;;;;;;;5003515;28;19929;-70
2022/01/02 01:26:08;;;;;;;;;;;;;;;;;;5008469;28;19926;-70
2022/01/02 01:28:35;;;;;;;;;;;;;;;;;;5005295;28;19925;-69
2022/01/02 01:31:02;;;;;;;;;;;;;;;;;;5005531;28;20488;-69
2022/01/02 01:33:29;;;;;;;;;;;;;;;;;;5004250;28;19933;-70
2022/01/02 01:36:06;;;;;;;;;;;;;;;;;;5005223;28;20372;-70
2022/01/02 01:38:34;;;;;;;;;;;;;;;;;;5006028;28;19940;-70
2022/01/02 01:41:01;;;;;;;;;;;;;;;;;;5006401;28;19933;-70
2022/01/02 01:43:37;;;;;;;;;;;;;;;;;;5002645;28;20298;-69
2022/01/02 01:46:04;;;;;;;;;;;;;;;;;;5008016;28;20404;-70
2022/01/02 01:48:31;;;;;;;;;;;;;;;;;;5004802;28;19929;-70
2022/01/02 01:50:58;;;;;;;;;;;;;;;;;;5007519;28;20426;-69
2022/01/02 01:53:25;;;;;;;;;;;;;;;;;;5001262;28;20001;-69
2022/01/02 01:55:55;;;;;;;;;;;;;;;;;;5004813;28;20509;-69
2022/01/02 01:58:24;;;;;;;;;;;;;;;;;;5002071;28;19934;-70
2022/01/02 02:00:51;;;;;;;;;;;;;;;;;;4998480;28;19934;-70
2022/01/02 02:03:18;;;;;;;;;;;;;;;;;;4998253;28;20087;-69
2022/01/02 02:05:45;;;;;;;;;;;;;;;;;;5003009;28;19926;-69
2022/01/02 02:08:12;;;;;;;;;;;;;;;;;;5001785;28;20344;-69
2022/01/02 02:10:41;;;;;;;;;;;;;;;;;;5002110;28;20405;-70
2022/01/02 02:13:08;;;;;;;;;;;;;;;;;;5005017;28;19929;-70
2022/01/02 02:15:35;;;;;;;;;;;;;;;;;;5006643;28;20381;-70
2022/01/02 02:18:02;;;;;;;;;;;;;;;;;;5004420;28;20397;-68
2022/01/02 02:20:29;;;;;;;;;;;;;;;;;;5003549;28;20285;-71
2022/01/02 02:22:56;;;;;;;;;;;;;;;;;;5003674;28;20288;-69
2022/01/02 02:25:23;;;;;;;;;;;;;;;;;;5000398;28;19926;-69
2022/01/02 02:27:50;;;;;;;;;;;;;;;;;;5000614;28;20312;-70
2022/01/02 02:30:17;;;;;;;;;;;;;;;;;;4998384;28;19925;-70
2022/01/02 02:32:44;;;;;;;;;;;;;;;;;;5002969;28;20124;-69
2022/01/02 02:35:11;;;;;;;;;;;;;;;;;;4999563;28;19932;-69
2022/01/02 02:37:40;;;;;;;;;;;;;;;;;;4999406;28;19925;-69
2022/01/02 02:40:07;;;;;;;;;;;;;;;;;;5007382;28;19933;-69
2022/01/02 02:42:42;;;;;;;;;;;;;;;;;;5005270;28;20008;-69
2022/01/02 02:48:59;;;;;;;;;;;;;;;;;;4997546;28;20384;-69
2022/01/02 02:50:43;;;;;;;;;;;;;;;;;;5008521;28;20022;-69
2022/01/02 02:53:10;;;;;;;;;;;;;;;;;;5007056;28;19932;-69
2022/01/02 02:55:43;;;;;;;;;;;;;;;;;;5008335;28;20367;-69
2022/01/02 02:58:38;;;;;;;;;;;;;;;;;;5008157;28;19925;-69
2022/01/02 03:00:57;;;;;;;;;;;;;;;;;;4999895;28;19926;-69
2022/01/02 03:03:24;;;;;;;;;;;;;;;;;;5004156;28;19925;-71
2022/01/02 03:05:51;;;;;;;;;;;;;;;;;;5006280;28;19932;-70
2022/01/02 03:08:18;;;;;;;;;;;;;;;;;;5004548;28;19956;-70
2022/01/02 03:10:45;;;;;;;;;;;;;;;;;;5009308;28;19925;-69
2022/01/02 03:13:12;;;;;;;;;;;;;;;;;;5007401;28;20117;-69
2022/01/02 03:15:39;;;;;;;;;;;;;;;;;;5004753;28;19933;-69
2022/01/02 03:18:06;;;;;;;;;;;;;;;;;;5008327;28;20287;-70
2022/01/02 03:20:33;;;;;;;;;;;;;;;;;;5009944;28;19926;-69
2022/01/02 03:23:00;;;;;;;;;;;;;;;;;;5009055;28;19944;-70
2022/01/02 03:25:26;;;;;;;;;;;;;;;;;;5012541;28;19948;-69
2022/01/02 03:27:53;;;;;;;;;;;;;;;;;;5011692;28;20408;-69
2022/01/02 03:30:20;;;;;;;;;;;;;;;;;;5013312;28;20444;-69
2022/01/02 03:32:47;;;;;;;;;;;;;;;;;;5009042;28;19934;-69
2022/01/02 03:35:14;;;;;;;;;;;;;;;;;;5007274;28;19939;-69
2022/01/02 03:37:41;;;;;;;;;;;;;;;;;;5007912;28;20402;-69
2022/01/02 03:40:08;;;;;;;;;;;;;;;;;;5009106;28;19926;-69
2022/01/02 03:42:35;;;;;;;;;;;;;;;;;;5010146;28;19931;-69
2022/01/02 03:45:02;;;;;;;;;;;;;;;;;;5008613;28;20020;-70
2022/01/02 03:47:29;;;;;;;;;;;;;;;;;;5011525;28;19936;-69
2022/01/02 03:49:57;;;;;;;;;;;;;;;;;;5012556;28;19925;-69
2022/01/02 03:52:24;;;;;;;;;;;;;;;;;;5008877;28;19932;-68
2022/01/02 03:54:51;;;;;;;;;;;;;;;;;;5007408;28;21707;-68
2022/01/02 03:57:18;;;;;;;;;;;;;;;;;;5008982;28;19932;-68
2022/01/02 03:59:45;;;;;;;;;;;;;;;;;;5011869;28;19925;-70
2022/01/02 04:02:12;;;;;;;;;;;;;;;;;;5010333;28;19932;-69
2022/01/02 04:04:39;;;;;;;;;;;;;;;;;;5010339;28;19933;-69
2022/01/02 04:07:06;;;;;;;;;;;;;;;;;;5010170;28;19925;-69
2022/01/02 04:09:33;;;;;;;;;;;;;;;;;;5011680;28;19976;-70
2022/01/02 04:12:00;;;;;;;;;;;;;;;;;;5010723;28;19972;-69
2022/01/02 04:14:27;;;;;;;;;;;;;;;;;;5010048;28;20373;-69
2022/01/02 04:16:53;;;;;;;;;;;;;;;;;;5006655;28;20375;-70
2022/01/02 04:19:20;;;;;;;;;;;;;;;;;;5011553;28;20360;-71
2022/01/02 04:21:47;;;;;;;;;;;;;;;;;;5005940;28;20399;-69
2022/01/02 04:24:14;;;;;;;;;;;;;;;;;;5007506;28;20710;-70
2022/01/02 04:26:41;;;;;;;;;;;;;;;;;;5008477;28;19941;-69
2022/01/02 04:29:08;;;;;;;;;;;;;;;;;;5011476;28;19944;-69
2022/01/02 04:31:35;;;;;;;;;;;;;;;;;;5010762;28;19926;-69
2022/01/02 04:34:02;;;;;;;;;;;;;;;;;;5010166;28;19925;-68
2022/01/02 04:36:29;;;;;;;;;;;;;;;;;;5006724;28;19926;-70
2022/01/02 04:38:56;;;;;;;;;;;;;;;;;;5010004;28;19925;-70
2022/01/02 04:41:23;;;;;;;;;;;;;;;;;;5010612;28;19940;-69
2022/01/02 04:43:50;;;;;;;;;;;;;;;;;;5009756;28;19936;-69
2022/01/02 04:46:17;;;;;;;;;;;;;;;;;;5006215;28;19925;-70
2022/01/02 04:48:44;;;;;;;;;;;;;;;;;;5009530;28;20016;-69
2022/01/02 04:51:11;;;;;;;;;;;;;;;;;;5009333;28;19930;-69
2022/01/02 04:53:46;;;;;;;;;;;;;;;;;;5004097;28;19929;-69
2022/01/02 04:56:13;;;;;;;;;;;;;;;;;;5005141;28;19925;-68
2022/01/02 04:58:40;;;;;;;;;;;;;;;;;;5009492;28;20014;-69
2022/01/02 05:01:11;;;;;;;;;;;;;;;;;;5010237;28;20303;-69
2022/01/02 05:03:38;;;;;;;;;;;;;;;;;;5011810;28;19933;-69
2022/01/02 05:06:05;;;;;;;;;;;;;;;;;;5009598;28;19943;-69
2022/01/02 05:08:32;;;;;;;;;;;;;;;;;;5007478;28;20308;-69
2022/01/02 05:10:59;;;;;;;;;;;;;;;;;;5009941;28;19979;-69
2022/01/02 05:13:26;;;;;;;;;;;;;;;;;;5008601;28;20047;-69
2022/01/02 05:15:52;;;;;;;;;;;;;;;;;;5004394;28;19929;-69
2022/01/02 05:18:19;;;;;;;;;;;;;;;;;;5007347;28;20274;-70
2022/01/02 05:20:48;;;;;;;;;;;;;;;;;;5009495;28;20281;-70
2022/01/02 05:23:15;;;;;;;;;;;;;;;;;;5008436;28;19925;-69
2022/01/02 05:25:42;;;;;;;;;;;;;;;;;;5008722;28;19925;-70
2022/01/02 05:28:09;;;;;;;;;;;;;;;;;;5007562;28;19932;-69
2022/01/02 05:30:37;;;;;;;;;;;;;;;;;;5009683;28;20168;-69
2022/01/02 05:33:04;;;;;;;;;;;;;;;;;;5008245;28;19926;-69
2022/01/02 05:35:31;;;;;;;;;;;;;;;;;;5009896;28;20033;-70
2022/01/02 05:37:58;;;;;;;;;;;;;;;;;;5006943;28;20409;-69
2022/01/02 05:40:25;;;;;;;;;;;;;;;;;;5009738;28;19925;-69
2022/01/02 05:42:52;;;;;;;;;;;;;;;;;;5005804;28;20462;-69
2022/01/02 05:45:19;;;;;;;;;;;;;;;;;;5007010;28;19934;-69
2022/01/02 05:47:46;;;;;;;;;;;;;;;;;;5008022;28;19926;-69
2022/01/02 05:50:13;;;;;;;;;;;;;;;;;;5008635;28;19933;-69
2022/01/02 05:52:40;;;;;;;;;;;;;;;;;;5004739;28;19930;-69
2022/01/02 05:55:07;;;;;;;;;;;;;;;;;;5009631;28;20300;-70
2022/01/02 05:57:34;;;;;;;;;;;;;;;;;;5006966;28;19925;-69
2022/01/02 06:00:01;;;;;;;;;;;;;;;;;;5007125;28;19925;-69
2022/01/02 06:02:28;;;;;;;;;;;;;;;;;;5006086;28;19940;-70
2022/01/02 06:04:55;;;;;;;;;;;;;;;;;;5009225;28;20377;-69
2022/01/02 06:07:22;;;;;;;;;;;;;;;;;;5008104;28;20037;-69
2022/01/02 06:09:48;;;;;;;;;;;;;;;;;;5009689;28;19925;-69
2022/01/02 06:12:15;;;;;;;;;;;;;;;;;;5006923;28;20299;-69
2022/01/02 06:14:42;;;;;;;;;;;;;;;;;;5004481;28;20375;-69
2022/01/02 06:17:09;;;;;;;;;;;;;;;;;;5009268;28;19940;-70
2022/01/02 06:19:36;;;;;;;;;;;;;;;;;;5010924;28;19948;-70
2022/01/02 06:22:03;;;;;;;;;;;;;;;;;;5008706;28;19925;-69
2022/01/02 06:24:30;;;;;;;;;;;;;;;;;;5008710;28;20313;-69
2022/01/02 06:26:57;;;;;;;;;;;;;;;;;;5006279;28;20303;-69
2022/01/02 06:29:24;;;;;;;;;;;;;;;;;;5001490;28;19925;-69
2022/01/02 06:31:51;;;;;;;;;;;;;;;;;;5007388;28;19932;-69
2022/01/02 06:34:18;;;;;;;;;;;;;;;;;;5006767;28;19926;-69
2022/01/02 06:36:45;;;;;;;;;;;;;;;;;;5007785;28;19925;-70
2022/01/02 06:39:12;;;;;;;;;;;;;;;;;;5008258;28;19955;-70
2022/01/02 06:41:39;;;;;;;;;;;;;;;;;;5007027;28;19934;-69
2022/01/02 06:44:06;;;;;;;;;;;;;;;;;;5008950;28;19925;-69
2022/01/02 06:46:33;;;;;;;;;;;;;;;;;;5008929;28;19929;-69
2022/01/02 06:49:00;;;;;;;;;;;;;;;;;;5006229;28;19925;-69
2022/01/02 06:51:27;;;;;;;;;;;;;;;;;;5008539;28;19931;-70
2022/01/02 06:53:54;;;;;;;;;;;;;;;;;;5006806;28;19925;-70
2022/01/02 06:56:21;;;;;;;;;;;;;;;;;;5011106;28;19929;-69
2022/01/02 06:58:48;;;;;;;;;;;;;;;;;;5012392;28;19926;-69
2022/01/02 07:01:15;;;;;;;;;;;;;;;;;;5011064;28;19925;-70
2022/01/02 07:03:41;;;;;;;;;;;;;;;;;;5007145;28;19934;-70
2022/01/02 07:06:08;;;;;;;;;;;;;;;;;;5011449;28;19932;-69
2022/01/02 07:08:35;;;;;;;;;;;;;;;;;;5009200;28;19935;-68
2022/01/02 07:11:02;;;;;;;;;;;;;;;;;;5013438;28;20014;-69
2022/01/02 07:13:29;;;;;;;;;;;;;;;;;;5013369;28;20028;-69
2022/01/02 07:15:56;;;;;;;;;;;;;;;;;;5014589;28;19932;-70
2022/01/02 07:18:23;;;;;;;;;;;;;;;;;;5011012;28;19926;-68
2022/01/02 07:20:50;;;;;;;;;;;;;;;;;;5012199;28;19957;-69
2022/01/02 07:23:17;;;;;;;;;;;;;;;;;;5009544;28;19926;-69
2022/01/02 07:25:44;;;;;;;;;;;;;;;;;;5012801;28;20016;-69
2022/01/02 07:28:11;;;;;;;;;;;;;;;;;;5012015;28;19932;-69
2022/01/02 07:30:38;;;;;;;;;;;;;;;;;;5011786;28;19949;-67
2022/01/02 07:33:05;;;;;;;;;;;;;;;;;;5010845;28;19926;-69
2022/01/02 07:35:32;;;;;;;;;;;;;;;;;;5011976;28;19925;-69
2022/01/02 07:37:59;;;;;;;;;;;;;;;;;;5013694;28;19932;-70
2022/01/02 07:40:26;;;;;;;;;;;;;;;;;;5012146;28;20146;-69
2022/01/02 07:42:53;;;;;;;;;;;;;;;;;;5012273;28;19933;-69
2022/01/02 07:45:20;;;;;;;;;;;;;;;;;;5014254;28;19985;-69
2022/01/02 07:47:47;;;;;;;;;;;;;;;;;;5013073;28;20004;-69
2022/01/02 07:50:14;;;;;;;;;;;;;;;;;;5012448;28;19933;-70
2022/01/02 07:52:41;;;;;;;;;;;;;;;;;;5012770;28;20020;-70
2022/01/02 07:55:08;;;;;;;;;;;;;;;;;;5013092;28;19929;-69
2022/01/02 07:57:35;;;;;;;;;;;;;;;;;;5008901;28;19932;-69
2022/01/02 08:00:02;;;;;;;;;;;;;;;;;;5011759;28;20121;-69
2022/01/02 08:02:29;;;;;;;;;;;;;;;;;;5010415;28;19926;-70
2022/01/02 08:04:55;;;;;;;;;;;;;;;;;;5012751;28;19932;-69
2022/01/02 08:07:22;;;;;;;;;;;;;;;;;;5006308;28;19979;-70
2022/01/02 08:09:49;;;;;;;;;;;;;;;;;;5012532;28;20310;-69
2022/01/02 08:12:16;;;;;;;;;;;;;;;;;;5010574;28;19925;-69
2022/01/02 08:14:43;;;;;;;;;;;;;;;;;;5009790;28;19932;-70
2022/01/02 08:17:10;;;;;;;;;;;;;;;;;;5011464;28;19933;-70
2022/01/02 08:19:37;;;;;;;;;;;;;;;;;;5007568;28;20328;-70
2022/01/02 08:22:04;;;;;;;;;;;;;;;;;;5008192;28;19932;-70
2022/01/02 08:24:31;;;;;;;;;;;;;;;;;;4999713;28;19932;-70
2022/01/02 08:26:58;;;;;;;;;;;;;;;;;;5003421;28;19933;-70
2022/01/02 08:29:25;;;;;;;;;;;;;;;;;;5004887;28;19932;-70
2022/01/02 08:31:52;;;;;;;;;;;;;;;;;;5004122;28;19929;-70
2022/01/02 08:34:19;;;;;;;;;;;;;;;;;;5000817;28;20008;-69
2022/01/02 08:36:46;;;;;;;;;;;;;;;;;;5005687;28;19949;-70
2022/01/02 08:39:13;;;;;;;;;;;;;;;;;;5004988;28;20304;-70
2022/01/02 08:41:40;;;;;;;;;;;;;;;;;;5002419;28;19933;-71
2022/01/02 08:44:07;;;;;;;;;;;;;;;;;;4997542;28;19940;-69
2022/01/02 08:46:34;;;;;;;;;;;;;;;;;;4998419;28;19926;-70
2022/01/02 08:49:01;;;;;;;;;;;;;;;;;;5005250;28;20015;-70
2022/01/02 08:51:29;;;;;;;;;;;;;;;;;;4998502;28;19932;-66
2022/01/02 08:53:56;;;;;;;;;;;;;;;;;;5006999;28;19925;-67
2022/01/02 08:56:23;;;;;;;;;;;;;;;;;;5006497;28;19930;-64
2022/01/02 08:58:50;;;;;;;;;;;;;;;;;;5005376;28;20052;-64
2022/01/02 09:01:17;;;;;;;;;;;;;;;;;;4999435;28;19931;-64
2022/01/02 09:03:44;;;;;;;;;;;;;;;;;;5006054;28;19933;-64
2022/01/02 09:06:11;;;;;;;;;;;;;;;;;;5004861;28;19932;-64
2022/01/02 09:08:38;;;;;;;;;;;;;;;;;;5000503;28;19926;-64
2022/01/02 09:11:05;;;;;;;;;;;;;;;;;;5006934;28;19932;-65
2022/01/02 09:13:32;;;;;;;;;;;;;;;;;;5002988;28;20285;-64
2022/01/02 09:15:59;;;;;;;;;;;;;;;;;;5003824;28;19931;-64
2022/01/02 09:18:26;;;;;;;;;;;;;;;;;;5004122;28;19926;-63
2022/01/02 09:20:53;;;;;;;;;;;;;;;;;;5009365;28;19932;-65
2022/01/02 09:23:20;;;;;;;;;;;;;;;;;;5005301;28;19925;-64
2022/01/02 09:25:47;;;;;;;;;;;;;;;;;;5009912;28;19934;-64
2022/01/02 09:28:14;;;;;;;;;;;;;;;;;;5005436;28;19934;-64
2022/01/02 09:30:40;;;;;;;;;;;;;;;;;;5006600;28;20024;-64
2022/01/02 09:33:08;;;;;;;;;;;;;;;;;;5006686;28;19932;-65
2022/01/02 09:35:36;;;;;;;;;;;;;;;;;;5003039;28;19938;-65
2022/01/02 09:38:03;;;;;;;;;;;;;;;;;;5003382;28;19925;-65
2022/01/02 09:40:29;;;;;;;;;;;;;;;;;;5005950;28;19932;-64
2022/01/02 09:42:57;;;;;;;;;;;;;;;;;;4999204;28;19929;-64
2022/01/02 09:45:24;;;;;;;;;;;;;;;;;;4999695;28;19933;-70
2022/01/02 09:47:51;;;;;;;;;;;;;;;;;;4998460;28;19956;-66
2022/01/02 09:50:18;;;;;;;;;;;;;;;;;;4998584;28;19932;-65
2022/01/02 09:52:45;;;;;;;;;;;;;;;;;;5001344;28;19929;-64
2022/01/02 09:55:12;;;;;;;;;;;;;;;;;;5002063;28;19929;-65
2022/01/02 09:57:39;;;;;;;;;;;;;;;;;;5005633;28;19932;-65
2022/01/02 10:00:06;;;;;;;;;;;;;;;;;;4999573;28;20482;-65
2022/01/02 10:02:33;;;;;;;;;;;;;;;;;;5005372;28;19964;-65
2022/01/02 10:05:00;;;;;;;;;;;;;;;;;;5004331;28;19929;-65
2022/01/02 10:07:29;;;;;;;;;;;;;;;;;;5000126;28;20265;-65
2022/01/02 10:09:55;;;;;;;;;;;;;;;;;;5000337;28;20428;-65
2022/01/02 10:12:22;;;;;;;;;;;;;;;;;;5007328;28;20410;-65
2022/01/02 10:14:49;;;;;;;;;;;;;;;;;;5003614;28;19932;-65
2022/01/02 10:17:16;;;;;;;;;;;;;;;;;;5003644;28;19925;-66
2022/01/02 10:19:43;;;;;;;;;;;;;;;;;;4998878;28;20464;-65
2022/01/02 10:22:10;;;;;;;;;;;;;;;;;;5006201;28;19932;-66
2022/01/02 10:24:37;;;;;;;;;;;;;;;;;;5001693;28;19933;-64
2022/01/02 10:27:04;;;;;;;;;;;;;;;;;;5004217;28;19929;-65
2022/01/02 10:29:31;;;;;;;;;;;;;;;;;;5001833;28;20678;-65
2022/01/02 10:31:58;;;;;;;;;;;;;;;;;;4999839;28;19965;-65
2022/01/02 10:34:25;;;;;;;;;;;;;;;;;;5000331;28;19932;-64
2022/01/02 10:36:52;;;;;;;;;;;;;;;;;;4995162;28;20425;-65
2022/01/02 10:39:19;;;;;;;;;;;;;;;;;;5007443;28;19931;-65
2022/01/02 10:41:46;;;;;;;;;;;;;;;;;;5001813;28;19925;-67
2022/01/02 10:44:13;;;;;;;;;;;;;;;;;;5005707;28;19925;-64
2022/01/02 10:46:40;;;;;;;;;;;;;;;;;;5004133;28;19948;-65
2022/01/02 10:49:07;;;;;;;;;;;;;;;;;;5006593;28;19925;-65
2022/01/02 10:51:34;;;;;;;;;;;;;;;;;;5002187;28;19926;-66
2022/01/02 10:54:01;;;;;;;;;;;;;;;;;;5001277;28;19925;-65
2022/01/02 10:56:30;;;;;;;;;;;;;;;;;;5002910;28;20024;-65
2022/01/02 10:58:57;;;;;;;;;;;;;;;;;;5008018;28;19925;-65
2022/01/02 11:01:24;;;;;;;;;;;;;;;;;;5001026;28;19930;-65
2022/01/02 11:03:51;;;;;;;;;;;;;;;;;;5006451;28;20463;-63
2022/01/02 11:06:18;;;;;;;;;;;;;;;;;;5001378;28;19956;-65
2022/01/02 11:08:45;;;;;;;;;;;;;;;;;;4998095;28;19936;-65
2022/01/02 11:11:12;;;;;;;;;;;;;;;;;;4998122;28;19925;-64
2022/01/02 11:13:39;;;;;;;;;;;;;;;;;;4998460;28;20491;-64
2022/01/02 11:16:06;;;;;;;;;;;;;;;;;;5001258;28;20510;-65
2022/01/02 11:18:33;;;;;;;;;;;;;;;;;;4999322;28;19925;-65
2022/01/02 11:21:00;;;;;;;;;;;;;;;;;;5003197;28;19932;-66
2022/01/02 11:23:27;;;;;;;;;;;;;;;;;;4999876;28;19932;-64
2022/01/02 11:25:54;;;;;;;;;;;;;;;;;;5001737;28;19941;-64
2022/01/02 11:28:21;;;;;;;;;;;;;;;;;;5000353;28;19926;-64
2022/01/02 11:30:48;;;;;;;;;;;;;;;;;;4997954;28;19926;-67
2022/01/02 11:33:15;;;;;;;;;;;;;;;;;;5002000;28;19930;-66
2022/01/02 11:35:42;;;;;;;;;;;;;;;;;;5005081;28;20293;-65
2022/01/02 11:38:09;;;;;;;;;;;;;;;;;;5004846;28;20427;-68
2022/01/02 11:40:36;;;;;;;;;;;;;;;;;;5006962;28;19925;-69
2022/01/02 11:43:03;;;;;;;;;;;;;;;;;;4998536;28;19968;-69
2022/01/02 11:45:30;;;;;;;;;;;;;;;;;;5009244;28;19933;-70
2022/01/02 11:48:03;;;;;;;;;;;;;;;;;;4999371;28;19933;-68
2022/01/02 11:50:30;;;;;;;;;;;;;;;;;;5001596;28;20397;-69
2022/01/02 11:52:57;;;;;;;;;;;;;;;;;;5000926;28;20461;-69
2022/01/02 11:55:24;;;;;;;;;;;;;;;;;;5008277;28;19926;-68
2022/01/02 11:57:51;;;;;;;;;;;;;;;;;;5005263;28;20055;-70
2022/01/02 12:00:18;;;;;;;;;;;;;;;;;;5003601;28;20072;-69
2022/01/02 12:02:45;;;;;;;;;;;;;;;;;;5002733;28;20376;-68
2022/01/02 12:05:13;;;;;;;;;;;;;;;;;;5004024;28;20283;-68
2022/01/02 12:07:45;;;;;;;;;;;;;;;;;;5001509;28;20284;-69
2022/01/02 12:10:12;;;;;;;;;;;;;;;;;;5004432;28;19955;-69
2022/01/02 12:12:39;;;;;;;;;;;;;;;;;;5005571;28;19925;-69
2022/01/02 12:15:06;;;;;;;;;;;;;;;;;;5007207;28;20055;-68
2022/01/02 12:17:33;;;;;;;;;;;;;;;;;;5003209;28;19926;-69
2022/01/02 12:20:00;;;;;;;;;;;;;;;;;;5006489;28;19925;-69
2022/01/02 12:22:27;;;;;;;;;;;;;;;;;;5004741;28;19932;-72
2022/01/02 12:24:54;;;;;;;;;;;;;;;;;;5009382;28;19973;-69
2022/01/02 12:27:20;;;;;;;;;;;;;;;;;;5006252;28;19925;-68
2022/01/02 12:29:47;;;;;;;;;;;;;;;;;;5005976;28;19934;-70
2022/01/02 12:32:15;;;;;;;;;;;;;;;;;;5002176;28;19925;-71
2022/01/02 12:34:42;;;;;;;;;;;;;;;;;;5007403;28;19932;-70
2022/01/02 12:37:09;;;;;;;;;;;;;;;;;;5000921;28;20422;-71
2022/01/02 12:39:36;;;;;;;;;;;;;;;;;;5005305;28;19936;-71
2022/01/02 12:42:03;;;;;;;;;;;;;;;;;;5005991;28;20020;-71
2022/01/02 12:44:30;;;;;;;;;;;;;;;;;;5008516;28;19972;-69
2022/01/02 12:46:57;;;;;;;;;;;;;;;;;;5005592;28;20276;-70
2022/01/02 12:49:25;;;;;;;;;;;;;;;;;;5004296;28;19925;-71
2022/01/02 12:51:52;;;;;;;;;;;;;;;;;;5004950;28;19933;-71
2022/01/02 12:54:19;;;;;;;;;;;;;;;;;;5005097;28;19933;-70
2022/01/02 12:56:46;;;;;;;;;;;;;;;;;;5007587;28;20323;-70
2022/01/02 12:59:13;;;;;;;;;;;;;;;;;;5007530;28;19968;-70
2022/01/02 13:01:40;;;;;;;;;;;;;;;;;;5003183;28;19926;-69
2022/01/02 13:04:07;;;;;;;;;;;;;;;;;;5006781;28;19959;-70
2022/01/02 13:06:34;;;;;;;;;;;;;;;;;;5002050;28;19979;-69
2022/01/02 13:09:02;;;;;;;;;;;;;;;;;;5006423;28;19930;-72
2022/01/02 13:11:30;;;;;;;;;;;;;;;;;;5008056;28;20379;-70
2022/01/02 13:13:57;;;;;;;;;;;;;;;;;;5006221;28;20647;-70
2022/01/02 13:16:24;;;;;;;;;;;;;;;;;;5003942;28;19961;-72
2022/01/02 13:18:51;;;;;;;;;;;;;;;;;;5005230;28;19936;-70
2022/01/02 13:21:18;;;;;;;;;;;;;;;;;;5003507;28;20323;-69
2022/01/02 13:23:45;;;;;;;;;;;;;;;;;;5007959;28;19940;-70
2022/01/02 13:26:12;;;;;;;;;;;;;;;;;;5008416;28;19925;-70
2022/01/02 13:28:39;;;;;;;;;;;;;;;;;;5005539;28;20284;-69
2022/01/02 13:31:07;;;;;;;;;;;;;;;;;;5008477;28;20012;-70
2022/01/02 13:33:35;;;;;;;;;;;;;;;;;;5008340;28;19926;-69
2022/01/02 13:36:02;;;;;;;;;;;;;;;;;;5003813;28;19925;-70
2022/01/02 13:38:29;;;;;;;;;;;;;;;;;;5008339;28;19965;-69
2022/01/02 13:40:56;;;;;;;;;;;;;;;;;;5006583;28;20012;-69
2022/01/02 13:43:24;;;;;;;;;;;;;;;;;;4995853;28;20346;-69
2022/01/02 13:45:50;;;;;;;;;;;;;;;;;;5001778;28;20024;-69
2022/01/02 13:48:17;;;;;;;;;;;;;;;;;;5004163;28;20221;-70
2022/01/02 13:50:45;;;;;;;;;;;;;;;;;;4999878;28;19940;-70
2022/01/02 13:53:11;;;;;;;;;;;;;;;;;;5004686;28;20273;-69
2022/01/02 13:55:40;;;;;;;;;;;;;;;;;;5006757;28;19933;-69
2022/01/02 13:58:07;;;;;;;;;;;;;;;;;;5002893;28;19925;-69
2022/01/02 14:00:34;;;;;;;;;;;;;;;;;;5004593;28;20446;-69
2022/01/02 14:03:01;;;;;;;;;;;;;;;;;;5002768;28;19926;-69
2022/01/02 14:05:28;;;;;;;;;;;;;;;;;;4999954;28;20470;-67
2022/01/02 14:07:55;;;;;;;;;;;;;;;;;;5001508;28;19977;-68
2022/01/02 14:10:22;;;;;;;;;;;;;;;;;;4999679;28;20000;-69
2022/01/02 14:12:49;;;;;;;;;;;;;;;;;;4998435;28;19944;-69
2022/01/02 14:15:21;;;;;;;;;;;;;;;;;;5002530;28;19933;-70
2022/01/02 14:17:48;;;;;;;;;;;;;;;;;;5000165;28;20304;-70
2022/01/02 14:20:15;;;;;;;;;;;;;;;;;;4998078;28;20000;-69
2022/01/02 14:22:42;;;;;;;;;;;;;;;;;;4998774;28;19936;-69
2022/01/02 14:25:09;;;;;;;;;;;;;;;;;;4999268;28;19956;-69
2022/01/02 14:27:36;;;;;;;;;;;;;;;;;;5001866;28;20320;-68
2022/01/02 14:30:03;;;;;;;;;;;;;;;;;;4999681;28;19932;-68
2022/01/02 14:32:29;;;;;;;;;;;;;;;;;;4996816;28;20015;-68
2022/01/02 14:34:57;;;;;;;;;;;;;;;;;;5002016;28;19926;-69
2022/01/02 14:37:27;;;;;;;;;;;;;;;;;;4999658;28;19929;-68
2022/01/02 14:39:54;;;;;;;;;;;;;;;;;;5001217;28;19925;-68
2022/01/02 14:42:23;;;;;;;;;;;;;;;;;;5004239;28;21569;-68
2022/01/02 14:44:50;;;;;;;;;;;;;;;;;;5001012;28;20405;-68
2022/01/02 14:47:17;;;;;;;;;;;;;;;;;;5000162;28;19940;-68
2022/01/02 14:49:43;;;;;;;;;;;;;;;;;;5002046;28;19932;-72
2022/01/02 14:52:10;;;;;;;;;;;;;;;;;;4997476;28;20016;-68
2022/01/02 14:54:37;;;;;;;;;;;;;;;;;;5001311;28;19949;-69
2022/01/02 14:57:06;;;;;;;;;;;;;;;;;;5003377;28;20404;-69
2022/01/02 14:59:32;;;;;;;;;;;;;;;;;;5000817;28;19945;-70
2022/01/02 15:01:59;;;;;;;;;;;;;;;;;;5001110;28;19963;-70
2022/01/02 15:04:26;;;;;;;;;;;;;;;;;;4996738;28;19933;-70
2022/01/02 15:06:53;;;;;;;;;;;;;;;;;;4999707;28;20032;-70
2022/01/02 15:09:21;;;;;;;;;;;;;;;;;;4996983;28;19925;-74
2022/01/02 15:11:49;;;;;;;;;;;;;;;;;;4993022;28;19929;-70
2022/01/02 15:14:16;;;;;;;;;;;;;;;;;;4995957;28;20038;-70
2022/01/02 15:16:48;;;;;;;;;;;;;;;;;;5001255;28;19929;-68
2022/01/02 15:19:16;;;;;;;;;;;;;;;;;;5000127;28;20020;-70
2022/01/02 15:21:43;;;;;;;;;;;;;;;;;;5001108;28;19940;-71
2022/01/02 15:24:09;;;;;;;;;;;;;;;;;;5005102;28;20411;-71
2022/01/02 15:26:36;;;;;;;;;;;;;;;;;;5003921;28;19940;-69
2022/01/02 15:29:05;;;;;;;;;;;;;;;;;;5006506;28;19925;-68
2022/01/02 15:31:32;;;;;;;;;;;;;;;;;;5004511;28;20024;-69
2022/01/02 15:34:01;;;;;;;;;;;;;;;;;;5004967;28;19925;-68
2022/01/02 15:36:27;;;;;;;;;;;;;;;;;;5005824;28;20043;-69
2022/01/02 15:38:55;;;;;;;;;;;;;;;;;;5005232;28;20319;-69
2022/01/02 15:41:21;;;;;;;;;;;;;;;;;;5006146;28;19940;-69
2022/01/02 15:43:49;;;;;;;;;;;;;;;;;;5006665;28;19956;-69
2022/01/02 15:46:16;;;;;;;;;;;;;;;;;;5005161;28;19937;-70
2022/01/02 15:48:43;;;;;;;;;;;;;;;;;;5005959;28;20369;-70
2022/01/02 15:51:10;;;;;;;;;;;;;;;;;;5005122;28;19929;-70
2022/01/02 15:53:39;;;;;;;;;;;;;;;;;;5007505;28;19937;-69
2022/01/02 15:56:06;;;;;;;;;;;;;;;;;;4998809;28;19933;-69
2022/01/02 15:58:32;;;;;;;;;;;;;;;;;;5001804;28;20389;-69
2022/01/02 16:00:59;;;;;;;;;;;;;;;;;;5007150;28;19934;-69
2022/01/02 16:03:27;;;;;;;;;;;;;;;;;;5002069;28;20371;-69
2022/01/02 16:05:57;;;;;;;;;;;;;;;;;;5000344;28;19926;-69
2022/01/02 16:08:23;;;;;;;;;;;;;;;;;;5001192;28;19933;-69
2022/01/02 16:10:50;;;;;;;;;;;;;;;;;;5004037;28;19933;-69
2022/01/02 16:13:17;;;;;;;;;;;;;;;;;;5004299;28;19933;-69
2022/01/02 16:15:45;;;;;;;;;;;;;;;;;;5006039;28;19926;-69
2022/01/02 16:18:12;;;;;;;;;;;;;;;;;;5001308;28;19934;-68
2022/01/02 16:20:41;;;;;;;;;;;;;;;;;;5008243;28;20008;-69
2022/01/02 16:23:08;;;;;;;;;;;;;;;;;;5003636;28;20393;-69
2022/01/02 16:25:39;;;;;;;;;;;;;;;;;;5004591;28;19932;-68
2022/01/02 16:28:06;;;;;;;;;;;;;;;;;;5000068;28;19926;-68
2022/01/02 16:30:33;;;;;;;;;;;;;;;;;;5007072;28;19926;-69
2022/01/02 16:32:59;;;;;;;;;;;;;;;;;;5004252;28;19930;-68
2022/01/02 16:35:26;;;;;;;;;;;;;;;;;;5008065;28;19932;-68
2022/01/02 16:37:53;;;;;;;;;;;;;;;;;;5007339;28;20300;-69
2022/01/02 16:40:24;;;;;;;;;;;;;;;;;;5008866;28;19932;-69
2022/01/02 16:42:51;;;;;;;;;;;;;;;;;;5001048;28;19936;-68
2022/01/02 16:45:18;;;;;;;;;;;;;;;;;;5004977;28;19929;-68
2022/01/02 16:47:45;;;;;;;;;;;;;;;;;;5002306;28;19926;-68